< Typhoon 200219 2002 Season Typhoon 200221 >
Typhoon 200220 (MEKKHALA)
General InformationTrack Information on Google MapsDetailed Wind InformationList of All Images || NewsDisaster Info.ResourceGoogle EarthGE AnimationAtom FeedGeoJSON
Detalied Best Track (Time Zone = UTC)
Year Month Day Hour Lat. Long. Pressure (hPa) Wind (kt) Class Image Chart
2002 9 22 06 13.5 114.3 1004 0 2 Image Chart
2002 9 22 12 13.5 114.0 1004 0 2 Image Chart
2002 9 22 18 14.1 113.4 1004 0 2 Image Chart
2002 9 23 00 14.2 112.3 1004 0 2 Image Chart
2002 9 23 06 14.4 111.6 1004 0 2 Image Chart
2002 9 23 12 14.8 111.2 1004 0 2 Image Chart
2002 9 23 18 15.5 111.0 1004 0 2 Image Chart
2002 9 24 00 15.9 110.9 1004 0 2 Image Chart
2002 9 24 06 16.2 110.5 1004 0 2 Image Chart
2002 9 24 12 16.5 110.2 1004 0 2 Image Chart
2002 9 24 18 17.0 110.1 1002 0 2 Image Chart
2002 9 25 00 17.4 109.7 998 35 3 Image Chart
2002 9 25 06 17.9 109.3 990 45 3 Image Chart
2002 9 25 12 18.2 109.0 990 45 3 Image Chart
2002 9 25 18 18.7 108.8 996 40 3 Image Chart
2002 9 26 00 19.4 108.6 998 40 3 Image Chart
2002 9 26 06 19.6 108.6 998 40 3 Image Chart
2002 9 26 12 19.9 108.4 998 40 3 Image Chart
2002 9 26 18 20.6 108.5 998 35 3 Image Chart
2002 9 27 00 21.1 108.6 1000 35 3 Image Chart
2002 9 27 06 21.1 108.7 1000 35 3 Image Chart
2002 9 27 12 21.2 109.0 1000 35 3 Image Chart
2002 9 27 18 21.3 109.4 1000 35 3 Image Chart
2002 9 28 00 21.3 109.6 1004 0 2 Image Chart
2002 9 28 06 21.2 109.7 1008 0 2 Image Chart
Japan Meteorological Agency Best Track Data | Correction Date : 2006-01-18
< Typhoon 200219 2002 Season Typhoon 200221 >

Help